sensor_id;sensor_type;location;lat;lon;timestamp;P1;durP1;ratioP1;P2;durP2;ratioP2
56233;SDS011;42141;53.240;6.580;2023-05-07T00:00:12;26.92;;;18.05;;
56233;SDS011;42141;53.240;6.580;2023-05-07T00:02:40;26.65;;;17.17;;
56233;SDS011;42141;53.240;6.580;2023-05-07T00:05:06;25.08;;;17.63;;
56233;SDS011;42141;53.240;6.580;2023-05-07T00:07:32;23.38;;;16.63;;
56233;SDS011;42141;53.240;6.580;2023-05-07T00:09:58;22.92;;;15.93;;
56233;SDS011;42141;53.240;6.580;2023-05-07T00:12:23;23.85;;;16.98;;
56233;SDS011;42141;53.240;6.580;2023-05-07T00:14:50;25.77;;;16.80;;
56233;SDS011;42141;53.240;6.580;2023-05-07T00:17:16;25.00;;;16.90;;
56233;SDS011;42141;53.240;6.580;2023-05-07T00:19:41;23.67;;;17.33;;
56233;SDS011;42141;53.240;6.580;2023-05-07T00:22:07;26.45;;;18.80;;
56233;SDS011;42141;53.240;6.580;2023-05-07T00:24:33;25.08;;;17.77;;
56233;SDS011;42141;53.240;6.580;2023-05-07T00:26:59;22.75;;;16.40;;
56233;SDS011;42141;53.240;6.580;2023-05-07T00:29:25;23.75;;;17.13;;
56233;SDS011;42141;53.240;6.580;2023-05-07T00:31:51;30.65;;;18.23;;
56233;SDS011;42141;53.240;6.580;2023-05-07T00:34:17;28.48;;;18.17;;
56233;SDS011;42141;53.240;6.580;2023-05-07T00:36:42;28.52;;;17.85;;
56233;SDS011;42141;53.240;6.580;2023-05-07T00:39:08;27.55;;;18.05;;
56233;SDS011;42141;53.240;6.580;2023-05-07T00:41:34;29.50;;;19.85;;
56233;SDS011;42141;53.240;6.580;2023-05-07T00:44:00;27.70;;;18.70;;
56233;SDS011;42141;53.240;6.580;2023-05-07T00:46:27;30.63;;;18.25;;
56233;SDS011;42141;53.240;6.580;2023-05-07T00:48:53;27.40;;;18.88;;
56233;SDS011;42141;53.240;6.580;2023-05-07T00:51:19;31.05;;;18.15;;
56233;SDS011;42141;53.240;6.580;2023-05-07T00:53:45;27.55;;;18.63;;
56233;SDS011;42141;53.240;6.580;2023-05-07T00:56:11;26.10;;;19.08;;
56233;SDS011;42141;53.240;6.580;2023-05-07T00:58:37;26.33;;;19.63;;
56233;SDS011;42141;53.240;6.580;2023-05-07T01:01:03;26.13;;;19.45;;
56233;SDS011;42141;53.240;6.580;2023-05-07T01:03:29;27.92;;;20.15;;
56233;SDS011;42141;53.240;6.580;2023-05-07T01:05:55;28.77;;;20.60;;
56233;SDS011;42141;53.240;6.580;2023-05-07T01:08:23;29.75;;;20.02;;
56233;SDS011;42141;53.240;6.580;2023-05-07T01:10:51;35.70;;;21.83;;
56233;SDS011;42141;53.240;6.580;2023-05-07T01:13:19;30.40;;;21.67;;
56233;SDS011;42141;53.240;6.580;2023-05-07T01:15:45;31.38;;;21.98;;
56233;SDS011;42141;53.240;6.580;2023-05-07T01:18:11;35.75;;;22.13;;
56233;SDS011;42141;53.240;6.580;2023-05-07T01:20:36;33.75;;;22.02;;
56233;SDS011;42141;53.240;6.580;2023-05-07T01:23:02;30.02;;;22.58;;
56233;SDS011;42141;53.240;6.580;2023-05-07T01:25:28;29.92;;;23.10;;
56233;SDS011;42141;53.240;6.580;2023-05-07T01:27:55;35.38;;;22.35;;
56233;SDS011;42141;53.240;6.580;2023-05-07T01:30:21;34.05;;;22.50;;
56233;SDS011;42141;53.240;6.580;2023-05-07T01:32:51;34.95;;;21.45;;
56233;SDS011;42141;53.240;6.580;2023-05-07T01:35:22;33.40;;;23.63;;
56233;SDS011;42141;53.240;6.580;2023-05-07T01:37:50;31.08;;;22.35;;
56233;SDS011;42141;53.240;6.580;2023-05-07T01:40:16;33.95;;;23.08;;
56233;SDS011;42141;53.240;6.580;2023-05-07T01:42:45;32.22;;;23.35;;
56233;SDS011;42141;53.240;6.580;2023-05-07T01:45:11;32.33;;;22.60;;
56233;SDS011;42141;53.240;6.580;2023-05-07T01:47:37;33.00;;;22.15;;
56233;SDS011;42141;53.240;6.580;2023-05-07T01:50:07;34.70;;;22.17;;
56233;SDS011;42141;53.240;6.580;2023-05-07T01:52:34;33.17;;;22.73;;
56233;SDS011;42141;53.240;6.580;2023-05-07T01:55:00;26.63;;;22.20;;
56233;SDS011;42141;53.240;6.580;2023-05-07T01:57:25;33.15;;;22.00;;
56233;SDS011;42141;53.240;6.580;2023-05-07T01:59:51;30.63;;;22.63;;
56233;SDS011;42141;53.240;6.580;2023-05-07T02:02:17;35.13;;;23.15;;
56233;SDS011;42141;53.240;6.580;2023-05-07T02:04:42;33.83;;;22.42;;
56233;SDS011;42141;53.240;6.580;2023-05-07T02:07:08;32.42;;;22.95;;
56233;SDS011;42141;53.240;6.580;2023-05-07T02:09:34;33.70;;;22.20;;
56233;SDS011;42141;53.240;6.580;2023-05-07T02:11:59;29.90;;;21.40;;
56233;SDS011;42141;53.240;6.580;2023-05-07T02:14:25;32.97;;;22.88;;
56233;SDS011;42141;53.240;6.580;2023-05-07T02:16:51;33.28;;;23.67;;
56233;SDS011;42141;53.240;6.580;2023-05-07T02:19:16;37.00;;;23.80;;
56233;SDS011;42141;53.240;6.580;2023-05-07T02:21:43;35.03;;;23.08;;
56233;SDS011;42141;53.240;6.580;2023-05-07T02:24:08;32.78;;;22.50;;
56233;SDS011;42141;53.240;6.580;2023-05-07T02:26:34;34.83;;;24.15;;
56233;SDS011;42141;53.240;6.580;2023-05-07T02:29:00;33.40;;;24.23;;
56233;SDS011;42141;53.240;6.580;2023-05-07T02:31:25;34.08;;;23.95;;
56233;SDS011;42141;53.240;6.580;2023-05-07T02:33:51;42.60;;;26.98;;
56233;SDS011;42141;53.240;6.580;2023-05-07T02:36:17;36.53;;;26.40;;
56233;SDS011;42141;53.240;6.580;2023-05-07T02:38:42;39.60;;;29.08;;
56233;SDS011;42141;53.240;6.580;2023-05-07T02:41:08;38.45;;;27.33;;
56233;SDS011;42141;53.240;6.580;2023-05-07T02:43:34;45.10;;;28.90;;
56233;SDS011;42141;53.240;6.580;2023-05-07T02:46:03;44.35;;;28.55;;
56233;SDS011;42141;53.240;6.580;2023-05-07T02:48:33;38.33;;;27.58;;
56233;SDS011;42141;53.240;6.580;2023-05-07T02:50:59;37.45;;;26.52;;
56233;SDS011;42141;53.240;6.580;2023-05-07T02:53:26;35.88;;;24.77;;
56233;SDS011;42141;53.240;6.580;2023-05-07T02:55:52;38.35;;;24.73;;
56233;SDS011;42141;53.240;6.580;2023-05-07T02:58:18;38.33;;;25.00;;
56233;SDS011;42141;53.240;6.580;2023-05-07T03:00:44;36.95;;;23.95;;
56233;SDS011;42141;53.240;6.580;2023-05-07T03:03:10;37.70;;;23.83;;
56233;SDS011;42141;53.240;6.580;2023-05-07T03:05:36;37.63;;;24.80;;
56233;SDS011;42141;53.240;6.580;2023-05-07T03:08:02;33.72;;;22.35;;
56233;SDS011;42141;53.240;6.580;2023-05-07T03:10:29;31.50;;;21.90;;
56233;SDS011;42141;53.240;6.580;2023-05-07T03:12:55;30.13;;;22.60;;
56233;SDS011;42141;53.240;6.580;2023-05-07T03:15:20;38.75;;;24.23;;
56233;SDS011;42141;53.240;6.580;2023-05-07T03:17:47;39.42;;;25.75;;
56233;SDS011;42141;53.240;6.580;2023-05-07T03:20:13;37.40;;;24.83;;
56233;SDS011;42141;53.240;6.580;2023-05-07T03:22:39;37.45;;;24.40;;
56233;SDS011;42141;53.240;6.580;2023-05-07T03:25:05;33.85;;;24.33;;
56233;SDS011;42141;53.240;6.580;2023-05-07T03:27:31;38.72;;;24.42;;
56233;SDS011;42141;53.240;6.580;2023-05-07T03:29:57;33.00;;;23.55;;
56233;SDS011;42141;53.240;6.580;2023-05-07T03:32:23;38.47;;;23.55;;
56233;SDS011;42141;53.240;6.580;2023-05-07T03:34:48;32.40;;;24.05;;
56233;SDS011;42141;53.240;6.580;2023-05-07T03:37:14;33.80;;;21.98;;
56233;SDS011;42141;53.240;6.580;2023-05-07T03:39:40;35.20;;;23.42;;
56233;SDS011;42141;53.240;6.580;2023-05-07T03:42:06;33.17;;;22.88;;
56233;SDS011;42141;53.240;6.580;2023-05-07T03:44:31;34.58;;;22.92;;
56233;SDS011;42141;53.240;6.580;2023-05-07T03:46:57;41.22;;;24.55;;
56233;SDS011;42141;53.240;6.580;2023-05-07T03:49:23;35.72;;;24.35;;
56233;SDS011;42141;53.240;6.580;2023-05-07T03:51:48;35.33;;;23.80;;
56233;SDS011;42141;53.240;6.580;2023-05-07T03:54:14;31.27;;;22.52;;
56233;SDS011;42141;53.240;6.580;2023-05-07T03:56:40;34.35;;;23.83;;
56233;SDS011;42141;53.240;6.580;2023-05-07T03:59:05;35.83;;;24.65;;
56233;SDS011;42141;53.240;6.580;2023-05-07T04:01:31;38.80;;;26.17;;
56233;SDS011;42141;53.240;6.580;2023-05-07T04:03:57;37.85;;;25.10;;
56233;SDS011;42141;53.240;6.580;2023-05-07T04:06:22;36.65;;;25.85;;
56233;SDS011;42141;53.240;6.580;2023-05-07T04:08:49;39.92;;;25.30;;
56233;SDS011;42141;53.240;6.580;2023-05-07T04:11:15;36.25;;;26.65;;
56233;SDS011;42141;53.240;6.580;2023-05-07T04:13:40;34.70;;;25.25;;
56233;SDS011;42141;53.240;6.580;2023-05-07T04:16:06;38.78;;;25.77;;
56233;SDS011;42141;53.240;6.580;2023-05-07T04:18:32;41.05;;;26.40;;
56233;SDS011;42141;53.240;6.580;2023-05-07T04:20:58;36.78;;;25.83;;
56233;SDS011;42141;53.240;6.580;2023-05-07T04:23:24;34.55;;;24.25;;
56233;SDS011;42141;53.240;6.580;2023-05-07T04:25:50;39.63;;;25.25;;
56233;SDS011;42141;53.240;6.580;2023-05-07T04:28:16;33.00;;;22.48;;
56233;SDS011;42141;53.240;6.580;2023-05-07T04:30:41;36.53;;;23.65;;
56233;SDS011;42141;53.240;6.580;2023-05-07T04:33:07;33.55;;;23.50;;
56233;SDS011;42141;53.240;6.580;2023-05-07T04:35:33;37.80;;;23.80;;
56233;SDS011;42141;53.240;6.580;2023-05-07T04:37:59;35.22;;;23.00;;
56233;SDS011;42141;53.240;6.580;2023-05-07T04:40:25;33.00;;;22.83;;
56233;SDS011;42141;53.240;6.580;2023-05-07T04:42:51;35.00;;;23.02;;
56233;SDS011;42141;53.240;6.580;2023-05-07T04:45:18;35.80;;;22.92;;
56233;SDS011;42141;53.240;6.580;2023-05-07T04:47:44;36.50;;;23.88;;
56233;SDS011;42141;53.240;6.580;2023-05-07T04:50:10;31.75;;;21.67;;
56233;SDS011;42141;53.240;6.580;2023-05-07T04:52:36;32.88;;;22.05;;
56233;SDS011;42141;53.240;6.580;2023-05-07T04:55:01;31.65;;;22.60;;
56233;SDS011;42141;53.240;6.580;2023-05-07T04:57:27;33.38;;;21.50;;
56233;SDS011;42141;53.240;6.580;2023-05-07T04:59:53;32.17;;;21.95;;
56233;SDS011;42141;53.240;6.580;2023-05-07T05:02:19;26.25;;;19.58;;
56233;SDS011;42141;53.240;6.580;2023-05-07T05:04:45;35.47;;;20.90;;
56233;SDS011;42141;53.240;6.580;2023-05-07T05:07:10;30.25;;;20.88;;
56233;SDS011;42141;53.240;6.580;2023-05-07T05:09:36;28.58;;;20.63;;
56233;SDS011;42141;53.240;6.580;2023-05-07T05:12:02;32.08;;;21.52;;
56233;SDS011;42141;53.240;6.580;2023-05-07T05:14:28;30.67;;;19.63;;
56233;SDS011;42141;53.240;6.580;2023-05-07T05:16:54;27.73;;;20.08;;
56233;SDS011;42141;53.240;6.580;2023-05-07T05:19:20;29.20;;;19.42;;
56233;SDS011;42141;53.240;6.580;2023-05-07T05:21:46;30.80;;;20.25;;
56233;SDS011;42141;53.240;6.580;2023-05-07T05:24:11;27.50;;;20.48;;
56233;SDS011;42141;53.240;6.580;2023-05-07T05:26:37;27.58;;;19.70;;
56233;SDS011;42141;53.240;6.580;2023-05-07T05:29:03;25.50;;;19.42;;
56233;SDS011;42141;53.240;6.580;2023-05-07T05:31:29;26.95;;;20.15;;
56233;SDS011;42141;53.240;6.580;2023-05-07T05:33:54;26.92;;;20.27;;
56233;SDS011;42141;53.240;6.580;2023-05-07T05:36:20;27.15;;;19.00;;
56233;SDS011;42141;53.240;6.580;2023-05-07T05:38:46;24.75;;;19.08;;
56233;SDS011;42141;53.240;6.580;2023-05-07T05:41:11;31.13;;;20.60;;
56233;SDS011;42141;53.240;6.580;2023-05-07T05:43:37;31.15;;;20.38;;
56233;SDS011;42141;53.240;6.580;2023-05-07T05:46:03;27.90;;;20.00;;
56233;SDS011;42141;53.240;6.580;2023-05-07T05:48:29;24.67;;;17.75;;
56233;SDS011;42141;53.240;6.580;2023-05-07T05:50:55;26.83;;;18.20;;
56233;SDS011;42141;53.240;6.580;2023-05-07T05:53:21;25.48;;;18.50;;
56233;SDS011;42141;53.240;6.580;2023-05-07T05:55:46;24.80;;;17.83;;
56233;SDS011;42141;53.240;6.580;2023-05-07T05:58:12;25.67;;;18.55;;
56233;SDS011;42141;53.240;6.580;2023-05-07T06:00:38;27.13;;;19.30;;
56233;SDS011;42141;53.240;6.580;2023-05-07T06:03:03;27.88;;;18.90;;
56233;SDS011;42141;53.240;6.580;2023-05-07T06:05:29;26.13;;;19.60;;
56233;SDS011;42141;53.240;6.580;2023-05-07T06:07:55;28.58;;;19.90;;
56233;SDS011;42141;53.240;6.580;2023-05-07T06:10:21;28.60;;;20.88;;
56233;SDS011;42141;53.240;6.580;2023-05-07T06:12:47;26.38;;;18.88;;
56233;SDS011;42141;53.240;6.580;2023-05-07T06:15:12;29.55;;;19.65;;
56233;SDS011;42141;53.240;6.580;2023-05-07T06:17:38;26.88;;;19.63;;
56233;SDS011;42141;53.240;6.580;2023-05-07T06:20:04;24.15;;;19.45;;
56233;SDS011;42141;53.240;6.580;2023-05-07T06:22:30;25.67;;;19.98;;
56233;SDS011;42141;53.240;6.580;2023-05-07T06:24:56;30.02;;;22.48;;
56233;SDS011;42141;53.240;6.580;2023-05-07T06:27:23;30.27;;;23.88;;
56233;SDS011;42141;53.240;6.580;2023-05-07T06:29:49;37.22;;;26.70;;
56233;SDS011;42141;53.240;6.580;2023-05-07T06:32:14;39.78;;;26.83;;
56233;SDS011;42141;53.240;6.580;2023-05-07T06:34:42;37.63;;;26.65;;
56233;SDS011;42141;53.240;6.580;2023-05-07T06:37:07;34.28;;;25.80;;
56233;SDS011;42141;53.240;6.580;2023-05-07T06:39:33;32.70;;;26.15;;
56233;SDS011;42141;53.240;6.580;2023-05-07T06:41:59;31.23;;;25.38;;
56233;SDS011;42141;53.240;6.580;2023-05-07T06:44:27;30.73;;;23.90;;
56233;SDS011;42141;53.240;6.580;2023-05-07T06:46:52;32.17;;;24.35;;
56233;SDS011;42141;53.240;6.580;2023-05-07T06:49:18;32.05;;;23.02;;
56233;SDS011;42141;53.240;6.580;2023-05-07T06:51:44;34.40;;;22.63;;
56233;SDS011;42141;53.240;6.580;2023-05-07T06:54:09;30.77;;;21.33;;
56233;SDS011;42141;53.240;6.580;2023-05-07T06:56:35;29.80;;;20.30;;
56233;SDS011;42141;53.240;6.580;2023-05-07T06:59:01;26.58;;;19.95;;
56233;SDS011;42141;53.240;6.580;2023-05-07T07:01:28;20.77;;;16.95;;
56233;SDS011;42141;53.240;6.580;2023-05-07T07:03:54;23.48;;;16.92;;
56233;SDS011;42141;53.240;6.580;2023-05-07T07:06:20;24.70;;;17.67;;
56233;SDS011;42141;53.240;6.580;2023-05-07T07:08:46;23.10;;;17.88;;
56233;SDS011;42141;53.240;6.580;2023-05-07T07:11:12;23.00;;;16.63;;
56233;SDS011;42141;53.240;6.580;2023-05-07T07:13:37;19.63;;;15.82;;
56233;SDS011;42141;53.240;6.580;2023-05-07T07:16:03;22.50;;;15.73;;
56233;SDS011;42141;53.240;6.580;2023-05-07T07:18:29;24.80;;;16.55;;
56233;SDS011;42141;53.240;6.580;2023-05-07T07:20:55;28.08;;;17.65;;
56233;SDS011;42141;53.240;6.580;2023-05-07T07:23:20;26.40;;;17.95;;
56233;SDS011;42141;53.240;6.580;2023-05-07T07:25:46;21.27;;;16.25;;
56233;SDS011;42141;53.240;6.580;2023-05-07T07:28:12;20.48;;;15.27;;
56233;SDS011;42141;53.240;6.580;2023-05-07T07:30:38;24.05;;;16.65;;
56233;SDS011;42141;53.240;6.580;2023-05-07T07:33:04;27.42;;;17.83;;
56233;SDS011;42141;53.240;6.580;2023-05-07T07:35:30;27.00;;;18.08;;
56233;SDS011;42141;53.240;6.580;2023-05-07T07:37:57;29.60;;;18.67;;
56233;SDS011;42141;53.240;6.580;2023-05-07T07:40:23;21.17;;;16.05;;
56233;SDS011;42141;53.240;6.580;2023-05-07T07:42:50;26.98;;;16.58;;
56233;SDS011;42141;53.240;6.580;2023-05-07T07:45:16;24.27;;;17.40;;
56233;SDS011;42141;53.240;6.580;2023-05-07T07:47:42;25.10;;;17.40;;
56233;SDS011;42141;53.240;6.580;2023-05-07T07:50:08;23.85;;;17.67;;
56233;SDS011;42141;53.240;6.580;2023-05-07T07:52:34;25.10;;;17.88;;
56233;SDS011;42141;53.240;6.580;2023-05-07T07:55:00;25.17;;;17.42;;
56233;SDS011;42141;53.240;6.580;2023-05-07T07:57:25;24.73;;;17.00;;
56233;SDS011;42141;53.240;6.580;2023-05-07T07:59:51;27.30;;;18.80;;
56233;SDS011;42141;53.240;6.580;2023-05-07T08:02:17;24.65;;;17.58;;
56233;SDS011;42141;53.240;6.580;2023-05-07T08:04:43;23.00;;;16.33;;
56233;SDS011;42141;53.240;6.580;2023-05-07T08:07:09;27.02;;;18.00;;
56233;SDS011;42141;53.240;6.580;2023-05-07T08:09:35;28.75;;;18.35;;
56233;SDS011;42141;53.240;6.580;2023-05-07T08:12:05;23.45;;;16.48;;
56233;SDS011;42141;53.240;6.580;2023-05-07T08:14:31;24.10;;;16.98;;
56233;SDS011;42141;53.240;6.580;2023-05-07T08:16:56;23.52;;;17.58;;
56233;SDS011;42141;53.240;6.580;2023-05-07T08:19:22;25.40;;;17.77;;
56233;SDS011;42141;53.240;6.580;2023-05-07T08:21:48;25.88;;;18.20;;
56233;SDS011;42141;53.240;6.580;2023-05-07T08:24:14;22.83;;;16.85;;
56233;SDS011;42141;53.240;6.580;2023-05-07T08:26:44;26.85;;;16.75;;
56233;SDS011;42141;53.240;6.580;2023-05-07T08:29:10;25.17;;;17.27;;
56233;SDS011;42141;53.240;6.580;2023-05-07T08:31:36;22.75;;;17.95;;
56233;SDS011;42141;53.240;6.580;2023-05-07T08:34:03;25.88;;;16.90;;
56233;SDS011;42141;53.240;6.580;2023-05-07T08:36:30;23.23;;;17.63;;
56233;SDS011;42141;53.240;6.580;2023-05-07T08:38:55;23.90;;;16.90;;
56233;SDS011;42141;53.240;6.580;2023-05-07T08:41:21;28.55;;;19.08;;
56233;SDS011;42141;53.240;6.580;2023-05-07T08:43:48;23.15;;;17.67;;
56233;SDS011;42141;53.240;6.580;2023-05-07T08:46:19;26.90;;;18.67;;
56233;SDS011;42141;53.240;6.580;2023-05-07T08:48:48;23.35;;;17.27;;
56233;SDS011;42141;53.240;6.580;2023-05-07T08:51:16;21.67;;;16.48;;
56233;SDS011;42141;53.240;6.580;2023-05-07T08:53:46;22.52;;;17.40;;
56233;SDS011;42141;53.240;6.580;2023-05-07T08:56:13;26.10;;;17.77;;
56233;SDS011;42141;53.240;6.580;2023-05-07T08:58:43;21.75;;;16.20;;
56233;SDS011;42141;53.240;6.580;2023-05-07T09:01:10;19.13;;;15.15;;
56233;SDS011;42141;53.240;6.580;2023-05-07T09:03:38;21.50;;;16.75;;
56233;SDS011;42141;53.240;6.580;2023-05-07T09:06:05;30.85;;;17.23;;
56233;SDS011;42141;53.240;6.580;2023-05-07T09:08:34;25.77;;;18.08;;
56233;SDS011;42141;53.240;6.580;2023-05-07T09:11:01;23.75;;;17.05;;
56233;SDS011;42141;53.240;6.580;2023-05-07T09:13:27;21.17;;;17.10;;
56233;SDS011;42141;53.240;6.580;2023-05-07T09:15:53;24.08;;;18.05;;
56233;SDS011;42141;53.240;6.580;2023-05-07T09:18:20;23.30;;;17.08;;
56233;SDS011;42141;53.240;6.580;2023-05-07T09:20:45;24.75;;;16.83;;
56233;SDS011;42141;53.240;6.580;2023-05-07T09:23:11;22.48;;;16.98;;
56233;SDS011;42141;53.240;6.580;2023-05-07T09:25:37;24.23;;;16.70;;
56233;SDS011;42141;53.240;6.580;2023-05-07T09:28:03;25.80;;;16.33;;
56233;SDS011;42141;53.240;6.580;2023-05-07T09:30:32;24.83;;;16.73;;
56233;SDS011;42141;53.240;6.580;2023-05-07T09:32:59;23.67;;;16.40;;
56233;SDS011;42141;53.240;6.580;2023-05-07T09:35:26;24.27;;;17.55;;
56233;SDS011;42141;53.240;6.580;2023-05-07T09:37:57;25.35;;;17.98;;
56233;SDS011;42141;53.240;6.580;2023-05-07T09:40:27;24.20;;;16.75;;
56233;SDS011;42141;53.240;6.580;2023-05-07T09:42:54;22.13;;;17.25;;
56233;SDS011;42141;53.240;6.580;2023-05-07T09:45:27;22.90;;;15.73;;
56233;SDS011;42141;53.240;6.580;2023-05-07T09:47:54;23.75;;;16.15;;
56233;SDS011;42141;53.240;6.580;2023-05-07T09:50:22;22.80;;;16.33;;
56233;SDS011;42141;53.240;6.580;2023-05-07T09:52:54;19.90;;;15.65;;
56233;SDS011;42141;53.240;6.580;2023-05-07T09:55:21;21.65;;;15.57;;
56233;SDS011;42141;53.240;6.580;2023-05-07T09:57:51;20.98;;;16.23;;
56233;SDS011;42141;53.240;6.580;2023-05-07T10:00:21;19.60;;;15.18;;
56233;SDS011;42141;53.240;6.580;2023-05-07T10:02:51;21.67;;;16.35;;
56233;SDS011;42141;53.240;6.580;2023-05-07T10:05:17;21.10;;;15.20;;
56233;SDS011;42141;53.240;6.580;2023-05-07T10:07:45;18.33;;;15.32;;
56233;SDS011;42141;53.240;6.580;2023-05-07T10:10:11;19.55;;;15.20;;
56233;SDS011;42141;53.240;6.580;2023-05-07T10:12:37;28.05;;;15.20;;
56233;SDS011;42141;53.240;6.580;2023-05-07T10:15:09;17.13;;;15.18;;
56233;SDS011;42141;53.240;6.580;2023-05-07T10:17:36;21.40;;;16.25;;
56233;SDS011;42141;53.240;6.580;2023-05-07T10:20:03;17.73;;;14.50;;
56233;SDS011;42141;53.240;6.580;2023-05-07T10:22:32;17.45;;;14.32;;
56233;SDS011;42141;53.240;6.580;2023-05-07T10:25:03;17.95;;;14.63;;
56233;SDS011;42141;53.240;6.580;2023-05-07T10:27:38;17.00;;;14.27;;
56233;SDS011;42141;53.240;6.580;2023-05-07T10:30:12;20.42;;;15.05;;
56233;SDS011;42141;53.240;6.580;2023-05-07T10:32:53;18.30;;;13.85;;
56233;SDS011;42141;53.240;6.580;2023-05-07T10:35:24;16.88;;;14.20;;
56233;SDS011;42141;53.240;6.580;2023-05-07T10:37:52;18.52;;;14.45;;
56233;SDS011;42141;53.240;6.580;2023-05-07T10:40:19;18.67;;;14.43;;
56233;SDS011;42141;53.240;6.580;2023-05-07T10:42:55;16.27;;;13.98;;
56233;SDS011;42141;53.240;6.580;2023-05-07T10:45:25;17.35;;;14.13;;
56233;SDS011;42141;53.240;6.580;2023-05-07T10:50:44;19.38;;;13.77;;
56233;SDS011;42141;53.240;6.580;2023-05-07T10:55:42;17.95;;;13.63;;
56233;SDS011;42141;53.240;6.580;2023-05-07T11:00:57;17.52;;;13.73;;
56233;SDS011;42141;53.240;6.580;2023-05-07T11:06:08;17.80;;;13.13;;
56233;SDS011;42141;53.240;6.580;2023-05-07T11:17:20;17.38;;;12.70;;
56233;SDS011;42141;53.240;6.580;2023-05-07T11:19:52;15.27;;;12.68;;
56233;SDS011;42141;53.240;6.580;2023-05-07T11:25:04;14.95;;;12.25;;
56233;SDS011;42141;53.240;6.580;2023-05-07T11:27:31;13.35;;;11.85;;
56233;SDS011;42141;53.240;6.580;2023-05-07T11:29:58;14.30;;;11.50;;
56233;SDS011;42141;53.240;6.580;2023-05-07T11:32:29;15.73;;;12.82;;
56233;SDS011;42141;53.240;6.580;2023-05-07T11:34:57;12.82;;;10.93;;
56233;SDS011;42141;53.240;6.580;2023-05-07T11:37:24;13.07;;;10.93;;
56233;SDS011;42141;53.240;6.580;2023-05-07T11:40:02;14.27;;;11.55;;
56233;SDS011;42141;53.240;6.580;2023-05-07T11:44:55;13.32;;;11.25;;
56233;SDS011;42141;53.240;6.580;2023-05-07T11:47:22;12.05;;;10.85;;
56233;SDS011;42141;53.240;6.580;2023-05-07T11:49:48;11.57;;;10.02;;
56233;SDS011;42141;53.240;6.580;2023-05-07T11:52:15;14.43;;;11.23;;
56233;SDS011;42141;53.240;6.580;2023-05-07T11:54:48;12.65;;;11.07;;
56233;SDS011;42141;53.240;6.580;2023-05-07T11:57:15;11.73;;;10.52;;
56233;SDS011;42141;53.240;6.580;2023-05-07T11:59:41;14.55;;;11.45;;
56233;SDS011;42141;53.240;6.580;2023-05-07T12:02:09;12.77;;;10.00;;
56233;SDS011;42141;53.240;6.580;2023-05-07T12:04:35;11.95;;;10.32;;
56233;SDS011;42141;53.240;6.580;2023-05-07T12:07:03;11.45;;;10.27;;
56233;SDS011;42141;53.240;6.580;2023-05-07T12:09:28;14.23;;;10.93;;
56233;SDS011;42141;53.240;6.580;2023-05-07T12:11:54;12.38;;;10.85;;
56233;SDS011;42141;53.240;6.580;2023-05-07T12:14:21;12.93;;;10.55;;
56233;SDS011;42141;53.240;6.580;2023-05-07T12:16:47;11.70;;;9.77;;
56233;SDS011;42141;53.240;6.580;2023-05-07T12:19:13;11.77;;;9.82;;
56233;SDS011;42141;53.240;6.580;2023-05-07T12:21:39;11.52;;;9.98;;
56233;SDS011;42141;53.240;6.580;2023-05-07T12:24:06;10.60;;;9.50;;
56233;SDS011;42141;53.240;6.580;2023-05-07T12:26:36;10.68;;;9.40;;
56233;SDS011;42141;53.240;6.580;2023-05-07T12:29:04;12.02;;;9.18;;
56233;SDS011;42141;53.240;6.580;2023-05-07T12:31:29;11.80;;;9.93;;
56233;SDS011;42141;53.240;6.580;2023-05-07T12:33:56;13.40;;;10.05;;
56233;SDS011;42141;53.240;6.580;2023-05-07T12:36:21;14.20;;;9.50;;
56233;SDS011;42141;53.240;6.580;2023-05-07T12:38:48;10.57;;;9.25;;
56233;SDS011;42141;53.240;6.580;2023-05-07T12:41:15;12.80;;;10.70;;
56233;SDS011;42141;53.240;6.580;2023-05-07T12:43:44;11.38;;;10.02;;
56233;SDS011;42141;53.240;6.580;2023-05-07T12:46:11;12.50;;;10.00;;
56233;SDS011;42141;53.240;6.580;2023-05-07T12:48:43;11.57;;;10.43;;
56233;SDS011;42141;53.240;6.580;2023-05-07T12:51:11;10.87;;;9.77;;
56233;SDS011;42141;53.240;6.580;2023-05-07T12:53:40;11.52;;;10.32;;
56233;SDS011;42141;53.240;6.580;2023-05-07T12:56:09;10.88;;;9.65;;
56233;SDS011;42141;53.240;6.580;2023-05-07T12:58:35;11.75;;;9.80;;
56233;SDS011;42141;53.240;6.580;2023-05-07T13:01:04;13.98;;;9.95;;
56233;SDS011;42141;53.240;6.580;2023-05-07T13:03:32;12.00;;;10.50;;
56233;SDS011;42141;53.240;6.580;2023-05-07T13:06:00;12.68;;;10.20;;
56233;SDS011;42141;53.240;6.580;2023-05-07T13:08:35;10.88;;;9.20;;
56233;SDS011;42141;53.240;6.580;2023-05-07T13:11:03;10.40;;;9.18;;
56233;SDS011;42141;53.240;6.580;2023-05-07T13:13:33;11.45;;;10.35;;
56233;SDS011;42141;53.240;6.580;2023-05-07T13:16:00;12.80;;;9.75;;
56233;SDS011;42141;53.240;6.580;2023-05-07T13:18:29;15.60;;;9.85;;
56233;SDS011;42141;53.240;6.580;2023-05-07T13:20:56;10.27;;;9.23;;
56233;SDS011;42141;53.240;6.580;2023-05-07T13:23:22;12.02;;;10.80;;
56233;SDS011;42141;53.240;6.580;2023-05-07T13:25:49;11.38;;;10.25;;
56233;SDS011;42141;53.240;6.580;2023-05-07T13:28:15;12.63;;;10.00;;
56233;SDS011;42141;53.240;6.580;2023-05-07T13:30:41;11.50;;;10.32;;
56233;SDS011;42141;53.240;6.580;2023-05-07T13:33:07;12.05;;;10.13;;
56233;SDS011;42141;53.240;6.580;2023-05-07T13:35:34;11.60;;;9.50;;
56233;SDS011;42141;53.240;6.580;2023-05-07T13:38:00;11.25;;;10.15;;
56233;SDS011;42141;53.240;6.580;2023-05-07T13:40:25;11.93;;;9.88;;
56233;SDS011;42141;53.240;6.580;2023-05-07T13:42:51;11.10;;;9.35;;
56233;SDS011;42141;53.240;6.580;2023-05-07T13:45:20;10.48;;;9.43;;
56233;SDS011;42141;53.240;6.580;2023-05-07T13:47:46;10.43;;;9.32;;
56233;SDS011;42141;53.240;6.580;2023-05-07T13:50:12;9.98;;;8.63;;
56233;SDS011;42141;53.240;6.580;2023-05-07T13:52:41;21.00;;;10.63;;
56233;SDS011;42141;53.240;6.580;2023-05-07T13:55:09;11.82;;;8.90;;
56233;SDS011;42141;53.240;6.580;2023-05-07T13:57:37;10.07;;;8.98;;
56233;SDS011;42141;53.240;6.580;2023-05-07T14:00:04;13.00;;;9.68;;
56233;SDS011;42141;53.240;6.580;2023-05-07T14:02:30;10.48;;;9.00;;
56233;SDS011;42141;53.240;6.580;2023-05-07T14:04:56;10.07;;;8.98;;
56233;SDS011;42141;53.240;6.580;2023-05-07T14:07:22;9.00;;;8.13;;
56233;SDS011;42141;53.240;6.580;2023-05-07T14:09:48;11.85;;;7.68;;
56233;SDS011;42141;53.240;6.580;2023-05-07T14:12:13;13.35;;;8.65;;
56233;SDS011;42141;53.240;6.580;2023-05-07T14:14:39;10.93;;;9.10;;
56233;SDS011;42141;53.240;6.580;2023-05-07T14:17:05;10.30;;;8.32;;
56233;SDS011;42141;53.240;6.580;2023-05-07T14:19:30;10.10;;;8.38;;
56233;SDS011;42141;53.240;6.580;2023-05-07T14:21:56;9.13;;;7.63;;
56233;SDS011;42141;53.240;6.580;2023-05-07T14:24:22;9.32;;;8.10;;
56233;SDS011;42141;53.240;6.580;2023-05-07T14:26:49;9.98;;;8.95;;
56233;SDS011;42141;53.240;6.580;2023-05-07T14:29:14;9.15;;;8.25;;
56233;SDS011;42141;53.240;6.580;2023-05-07T14:31:44;8.85;;;7.63;;
56233;SDS011;42141;53.240;6.580;2023-05-07T14:34:10;8.65;;;7.65;;
56233;SDS011;42141;53.240;6.580;2023-05-07T14:36:36;10.68;;;8.93;;
56233;SDS011;42141;53.240;6.580;2023-05-07T14:39:03;13.65;;;7.38;;
56233;SDS011;42141;53.240;6.580;2023-05-07T14:41:29;17.25;;;8.15;;
56233;SDS011;42141;53.240;6.580;2023-05-07T14:43:54;18.50;;;11.30;;